createdAt,value
2022-12-09T00:04:53.592Z,0.00
2022-12-09T00:09:54.088Z,0.00
2022-12-09T00:14:54.954Z,0.00
2022-12-09T00:19:55.285Z,0.00
2022-12-09T00:24:56.056Z,0.00
2022-12-09T00:29:56.732Z,0.00
2022-12-09T00:34:57.486Z,0.00
2022-12-09T00:39:58.341Z,0.00
2022-12-09T00:44:59.244Z,0.00
2022-12-09T00:49:59.911Z,0.00
2022-12-09T00:55:01.049Z,0.00
2022-12-09T01:05:50.053Z,0.00
2022-12-09T01:10:50.802Z,0.00
2022-12-09T01:15:51.737Z,0.00
2022-12-09T01:20:52.559Z,0.00
2022-12-09T01:25:53.265Z,0.00
2022-12-09T01:30:54.329Z,0.00
2022-12-09T01:35:54.772Z,0.00
2022-12-09T01:40:55.755Z,0.00
2022-12-09T01:45:55.947Z,0.00
2022-12-09T01:50:56.797Z,0.00
2022-12-09T01:55:57.522Z,0.00
2022-12-09T02:00:58.520Z,0.00
2022-12-09T02:05:58.905Z,0.00
2022-12-09T02:10:59.564Z,0.00
2022-12-09T02:16:00.450Z,0.00
2022-12-09T02:21:01.276Z,0.00
2022-12-09T02:26:02.182Z,0.00
2022-12-09T02:31:03.019Z,0.00
2022-12-09T02:36:04.105Z,0.00
2022-12-09T02:41:04.360Z,0.00
2022-12-09T02:46:05.395Z,0.00
2022-12-09T02:51:05.701Z,0.00
2022-12-09T02:56:06.422Z,0.00
2022-12-09T03:01:07.372Z,0.00
2022-12-09T03:06:08.301Z,0.00
2022-12-09T03:11:09.083Z,0.00
2022-12-09T03:16:09.955Z,0.00
2022-12-09T03:21:10.659Z,0.00
2022-12-09T03:26:11.380Z,0.00
2022-12-09T03:31:12.450Z,0.00
2022-12-09T03:36:12.701Z,0.00
2022-12-09T03:41:13.564Z,0.00
2022-12-09T03:46:14.573Z,0.00
2022-12-09T03:51:14.869Z,0.00
2022-12-09T03:56:22.547Z,0.00
2022-12-09T04:01:16.436Z,0.00
2022-12-09T04:06:17.227Z,0.00
2022-12-09T04:11:17.895Z,0.00
2022-12-09T04:16:18.837Z,0.00
2022-12-09T04:21:19.576Z,0.00
2022-12-09T04:26:20.525Z,0.00
2022-12-09T04:31:21.456Z,0.00
2022-12-09T04:36:21.830Z,0.00
2022-12-09T04:41:22.859Z,0.00
2022-12-09T04:46:23.299Z,0.00
2022-12-09T04:51:23.587Z,0.00
2022-12-09T04:56:24.392Z,0.00
2022-12-09T05:01:30.582Z,0.00
2022-12-09T05:06:26.957Z,0.00
2022-12-09T05:11:26.968Z,0.00
2022-12-09T05:16:27.445Z,0.00
2022-12-09T05:21:27.737Z,0.00
2022-12-09T05:26:28.341Z,0.00
2022-12-09T05:31:29.241Z,0.00
2022-12-09T05:36:30.409Z,0.00
2022-12-09T05:41:30.838Z,0.00
2022-12-09T05:46:32.048Z,0.00
2022-12-09T05:51:32.365Z,0.00
2022-12-09T05:56:33.522Z,0.00
2022-12-09T06:01:34.182Z,0.00
2022-12-09T06:06:35.124Z,0.00
2022-12-09T06:11:35.037Z,0.00
2022-12-09T06:16:35.775Z,0.00
2022-12-09T06:21:36.437Z,0.00
2022-12-09T06:26:36.919Z,1.00
2022-12-09T06:31:37.338Z,0.00
2022-12-09T06:36:38.115Z,1.00
2022-12-09T06:41:38.829Z,3.00
2022-12-09T06:46:39.906Z,1.00
2022-12-09T06:51:40.490Z,9.00
2022-12-09T06:56:40.668Z,6.00
2022-12-09T07:01:41.855Z,24.00
2022-12-09T07:06:41.897Z,35.00
2022-12-09T07:11:43.183Z,33.00
2022-12-09T07:16:43.714Z,61.00
2022-12-09T07:21:44.333Z,94.00
2022-12-09T07:26:44.627Z,92.00
2022-12-09T07:31:45.581Z,151.00
2022-12-09T07:36:46.711Z,153.00
2022-12-09T07:41:47.220Z,152.00
2022-12-09T07:46:47.892Z,161.00
2022-12-09T07:51:48.362Z,213.00
2022-12-09T07:56:48.776Z,206.00
2022-12-09T08:01:49.272Z,326.00
2022-12-09T08:06:50.157Z,339.00
2022-12-09T08:11:50.958Z,334.00
2022-12-09T08:16:51.565Z,364.00
2022-12-09T08:21:54.752Z,344.00
2022-12-09T08:26:52.824Z,385.00
2022-12-09T08:31:53.754Z,516.00
2022-12-09T08:37:00.291Z,517.00
2022-12-09T08:41:55.780Z,432.00
2022-12-09T08:46:55.372Z,554.00
2022-12-09T08:51:55.627Z,568.00
2022-12-09T08:56:56.433Z,668.00
2022-12-09T09:01:57.203Z,811.00
2022-12-09T09:06:58.094Z,800.00
2022-12-09T09:11:59.251Z,743.00
2022-12-09T09:17:00.031Z,960.00
2022-12-09T09:22:00.640Z,863.00
2022-12-09T09:27:01.007Z,941.00
2022-12-09T09:32:01.975Z,1008.00
2022-12-09T09:37:02.361Z,904.00
2022-12-09T09:42:08.191Z,739.00
2022-12-09T09:47:04.823Z,824.00
2022-12-09T09:52:04.691Z,928.00
2022-12-09T09:57:12.604Z,1013.00
2022-12-09T10:02:06.148Z,1135.00
2022-12-09T10:07:08.251Z,757.00
2022-12-09T10:12:07.676Z,1056.00
2022-12-09T10:17:08.608Z,1140.00
2022-12-09T10:22:08.947Z,998.00
2022-12-09T10:27:09.714Z,1541.00
2022-12-09T10:32:10.532Z,1320.00
2022-12-09T10:37:11.587Z,1661.00
2022-12-09T10:42:12.310Z,1413.00
2022-12-09T10:47:13.402Z,1369.00
2022-12-09T10:52:14.050Z,1057.00
2022-12-09T10:57:14.465Z,1083.00
2022-12-09T11:02:15.257Z,723.00
2022-12-09T11:07:16.581Z,1089.00
2022-12-09T11:12:17.128Z,877.00
2022-12-09T11:17:17.974Z,1174.00
2022-12-09T11:22:18.488Z,1261.00
2022-12-09T11:27:19.323Z,765.00
2022-12-09T11:32:20.525Z,1887.00
2022-12-09T11:37:20.666Z,1546.00
2022-12-09T11:42:21.362Z,1319.00
2022-12-09T11:47:21.986Z,1221.00
2022-12-09T11:52:22.661Z,1133.00
2022-12-09T11:57:23.329Z,1323.00
2022-12-09T12:02:24.201Z,1017.00
2022-12-09T12:07:24.901Z,719.00
2022-12-09T12:12:25.564Z,1295.00
2022-12-09T12:17:26.255Z,886.00
2022-12-09T12:22:26.951Z,1169.00
2022-12-09T12:27:27.605Z,1432.00
2022-12-09T12:32:28.271Z,1005.00
2022-12-09T12:37:28.956Z,703.00
2022-12-09T12:42:29.653Z,636.00
2022-12-09T12:47:30.302Z,1161.00
2022-12-09T12:57:32.609Z,704.00
2022-12-09T13:02:32.338Z,848.00
2022-12-09T13:07:33.112Z,764.00
2022-12-09T13:12:33.782Z,693.00
2022-12-09T13:17:34.513Z,643.00
2022-12-09T13:22:35.181Z,454.00
2022-12-09T13:27:35.855Z,353.00
2022-12-09T13:32:36.526Z,466.00
2022-12-09T13:37:37.263Z,437.00
2022-12-09T13:42:41.933Z,430.00
2022-12-09T13:47:39.448Z,407.00
2022-12-09T13:52:39.180Z,348.00
2022-12-09T13:57:39.831Z,303.00
2022-12-09T14:02:40.587Z,267.00
2022-12-09T14:07:41.275Z,238.00
2022-12-09T14:12:44.369Z,230.00
2022-12-09T14:17:42.601Z,193.00
2022-12-09T14:22:43.302Z,171.00
2022-12-09T14:27:44.005Z,154.00
2022-12-09T14:32:44.697Z,148.00
2022-12-09T14:37:45.368Z,125.00
2022-12-09T14:42:46.071Z,82.00
2022-12-09T14:47:46.822Z,56.00
2022-12-09T14:52:47.486Z,47.00
2022-12-09T14:57:48.177Z,42.00
2022-12-09T15:03:08.645Z,31.00
2022-12-09T15:07:50.415Z,16.00
2022-12-09T15:12:50.073Z,13.00
2022-12-09T15:17:50.829Z,7.00
2022-12-09T15:22:52.866Z,3.00
2022-12-09T15:27:52.152Z,1.00
2022-12-09T15:32:52.923Z,1.00
2022-12-09T15:37:53.666Z,0.00
2022-12-09T15:42:54.418Z,0.00
2022-12-09T15:47:55.150Z,0.00
2022-12-09T15:52:55.885Z,0.00
2022-12-09T15:58:03.637Z,0.00
2022-12-09T16:02:57.446Z,0.00
2022-12-09T16:07:58.332Z,0.00
2022-12-09T16:12:59.111Z,0.00
2022-12-09T16:17:59.887Z,0.00
2022-12-09T16:23:00.622Z,1.00
2022-12-09T16:28:01.339Z,0.00
2022-12-09T16:33:02.072Z,0.00
2022-12-09T16:38:02.764Z,1.00
2022-12-09T16:43:03.466Z,0.00
2022-12-09T16:48:04.185Z,0.00
2022-12-09T16:53:04.930Z,0.00
2022-12-09T16:58:05.617Z,0.00
2022-12-09T17:03:06.350Z,0.00
2022-12-09T17:08:07.144Z,0.00
2022-12-09T17:13:07.827Z,0.00
2022-12-09T17:18:08.488Z,1.00
2022-12-09T17:23:09.204Z,0.00
2022-12-09T17:28:09.974Z,0.00
2022-12-09T17:33:10.692Z,0.00
2022-12-09T17:38:11.413Z,1.00
2022-12-09T17:43:12.162Z,0.00
2022-12-09T17:48:12.827Z,1.00
2022-12-09T17:53:13.566Z,0.00
2022-12-09T17:58:14.305Z,0.00
2022-12-09T18:03:27.425Z,0.00
2022-12-09T18:08:16.653Z,1.00
2022-12-09T18:13:16.340Z,0.00
2022-12-09T18:18:17.057Z,0.00
2022-12-09T18:23:17.760Z,0.00
2022-12-09T18:28:18.489Z,0.00
2022-12-09T18:33:19.255Z,0.00
2022-12-09T18:38:19.955Z,1.00
2022-12-09T18:43:20.663Z,0.00
2022-12-09T18:48:21.360Z,1.00
2022-12-09T18:53:22.070Z,0.00
2022-12-09T18:58:36.852Z,0.00
2022-12-09T19:03:24.530Z,0.00
2022-12-09T19:08:24.248Z,0.00
2022-12-09T19:13:24.967Z,0.00
2022-12-09T19:18:25.731Z,0.00
2022-12-09T19:23:26.381Z,1.00
2022-12-09T19:28:27.089Z,0.00
2022-12-09T19:33:27.815Z,0.00
2022-12-09T19:38:28.662Z,0.00
2022-12-09T19:43:29.495Z,0.00
2022-12-09T19:48:30.191Z,0.00
2022-12-09T19:53:30.940Z,0.00
2022-12-09T19:58:31.691Z,0.00
2022-12-09T20:03:32.427Z,0.00
2022-12-09T20:08:33.373Z,0.00
2022-12-09T20:13:34.127Z,1.00
2022-12-09T20:18:34.957Z,0.00
2022-12-09T20:23:35.730Z,0.00
2022-12-09T20:28:36.450Z,0.00
2022-12-09T20:33:37.135Z,1.00
2022-12-09T20:38:37.886Z,0.00
2022-12-09T20:43:38.626Z,0.00
2022-12-09T20:48:39.362Z,0.00
2022-12-09T20:53:40.107Z,0.00
2022-12-09T20:58:40.864Z,0.00
2022-12-09T21:03:41.637Z,0.00
2022-12-09T21:08:42.352Z,0.00
2022-12-09T21:13:43.092Z,0.00
2022-12-09T21:18:43.861Z,0.00
2022-12-09T21:23:44.576Z,0.00
2022-12-09T21:28:45.349Z,0.00
2022-12-09T21:33:46.110Z,0.00
2022-12-09T21:38:46.831Z,0.00
2022-12-09T21:43:47.573Z,0.00
2022-12-09T21:48:51.994Z,0.00
2022-12-09T21:53:49.197Z,0.00
2022-12-09T21:58:49.911Z,0.00
2022-12-09T22:03:50.648Z,0.00
2022-12-09T22:08:51.401Z,0.00
2022-12-09T22:13:52.164Z,0.00
2022-12-09T22:18:52.885Z,0.00
2022-12-09T22:23:53.620Z,0.00
2022-12-09T22:28:54.362Z,0.00
2022-12-09T22:33:55.116Z,0.00
2022-12-09T22:38:55.834Z,0.00
2022-12-09T22:43:56.576Z,0.00
2022-12-09T22:48:57.334Z,0.00
2022-12-09T22:53:58.064Z,0.00
2022-12-09T22:58:58.812Z,0.00
2022-12-09T23:03:59.594Z,0.00
2022-12-09T23:09:00.300Z,0.00
2022-12-09T23:14:01.044Z,0.00
2022-12-09T23:19:02.551Z,0.00
2022-12-09T23:24:02.282Z,0.00
2022-12-09T23:29:03.028Z,0.00
2022-12-09T23:34:03.770Z,0.00
2022-12-09T23:39:04.524Z,0.00
2022-12-09T23:44:12.240Z,0.00
2022-12-09T23:49:05.955Z,0.00
2022-12-09T23:54:06.724Z,0.00
2022-12-09T23:59:07.443Z,0.00
